No.3tokuyomaru — JD3132 — position and weather

sailwx.info

Track history (hours):
 
Tides and Currents Weather Stations Pressure Air Temp Water Temp Dewpoint Dewpoint Depression Visibility Wind Speed Wind Dir Waves Ship Positions

No.3tokuyomaru

Last reported at 2018-Apr-22 05:05 UTC. Time now 2018-Apr-22 12:26 UTC.
Position N 34°32' E 134°09'.

Length 67 m; draft 4.5 m.

Type: Tanker. MMSI: 431002151.

Date/timePositionNaut miles runAvg speedWind from/ knotsBaromVisibWave heightAir tempDewpointWater temp
2018-Apr-22 05:05N 34°32' E 134°09'213.5
2018-Apr-22 04:56N 34°33' E 134°11'613.4
2018-Apr-22 04:30N 34°36' E 134°17'713.4
2018-Apr-22 04:00N 34°40' E 134°24'713.3
2018-Apr-22 03:30N 34°43' E 134°31'4 0.4
2018-Apr-21 17:19N 34°45' E 134°35'0 0.0
2018-Apr-21 16:49N 34°45' E 134°35'0 0.0
2018-Apr-21 16:25N 34°45' E 134°35'0 0.0
2018-Apr-21 15:55N 34°45' E 134°35'0 0.0
2018-Apr-21 14:49N 34°45' E 134°35'1 0.6
2018-Apr-21 13:02N 34°45' E 134°37'112.4
2018-Apr-21 12:57N 34°44' E 134°38'612.7
2018-Apr-21 12:30N 34°42' E 134°44'612.8
2018-Apr-21 12:00N 34°38' E 134°51'612.6
2018-Apr-21 11:30N 34°38' E 134°58'510.8
2018-Apr-21 11:00N 34°36' E 135°05'611.3
2018-Apr-21 10:30N 34°35' E 135°11'612.0
2018-Apr-21 10:00N 34°34' E 135°18'611.8
2018-Apr-21 09:30N 34°33' E 135°26'1 1.0
2018-Apr-21 08:59N 34°33' E 135°26'0 0.0
2018-Apr-21 08:11N 34°33' E 135°26'0 0.0
2018-Apr-21 07:59N 34°33' E 135°26'0 0.0
2018-Apr-21 07:29N 34°33' E 135°26'0 0.0
2018-Apr-21 06:59N 34°33' E 135°26'0 0.0
2018-Apr-21 06:29N 34°33' E 135°26'0 0.0
2018-Apr-21 05:59N 34°33' E 135°26'0 0.0
2018-Apr-21 05:29N 34°33' E 135°26'0 0.0
2018-Apr-21 04:59N 34°33' E 135°26'0 0.0
2018-Apr-21 04:29N 34°33' E 135°26'0 0.0
2018-Apr-21 03:59N 34°33' E 135°26'2 4.2
2018-Apr-21 03:31N 34°33' E 135°24'1 1.4
2018-Apr-21 02:59N 34°34' E 135°23'0 0.0
2018-Apr-21 02:29N 34°34' E 135°23'0 0.0
2018-Apr-21 01:59N 34°34' E 135°23'0 0.0
2018-Apr-21 01:29N 34°34' E 135°23'0 0.0
2018-Apr-21 00:59N 34°34' E 135°23'0 0.0
2018-Apr-21 00:29N 34°34' E 135°23'0 0.0
2018-Apr-20 23:59N 34°34' E 135°23'0 0.0
2018-Apr-20 23:29N 34°34' E 135°23'0 0.0
2018-Apr-20 22:59N 34°34' E 135°23'0 0.1
2018-Apr-20 22:29N 34°34' E 135°23'0 0.0
2018-Apr-20 21:59N 34°34' E 135°23'0 0.0
2018-Apr-20 21:29N 34°34' E 135°23'0 0.1
2018-Apr-20 20:59N 34°34' E 135°23'0 0.0
2018-Apr-20 20:23N 34°34' E 135°23'0 0.0
2018-Apr-20 19:59N 34°34' E 135°23'0 0.1
2018-Apr-20 19:29N 34°34' E 135°23'0 0.1
2018-Apr-20 18:59N 34°34' E 135°23'0 0.0
2018-Apr-20 18:29N 34°34' E 135°23'0 0.0
2018-Apr-20 17:59N 34°34' E 135°23'0 0.0
2018-Apr-20 17:29N 34°34' E 135°23'0 0.0
2018-Apr-20 16:59N 34°34' E 135°23'0 0.0
2018-Apr-20 16:29N 34°34' E 135°23'0 0.0
2018-Apr-20 15:59N 34°34' E 135°23'0 0.0
2018-Apr-20 15:26N 34°34' E 135°23'0 0.0
2018-Apr-20 14:59N 34°34' E 135°23'0 0.0
2018-Apr-20 14:29N 34°34' E 135°23'0 0.1
2018-Apr-20 13:53N 34°34' E 135°23'0 0.0
2018-Apr-20 13:29N 34°34' E 135°23'0 0.0
2018-Apr-20 12:59N 34°34' E 135°23'0 0.0
2018-Apr-20 12:29N 34°34' E 135°23'0 0.0
2018-Apr-20 11:59N 34°34' E 135°23'0 0.0
2018-Apr-20 11:29N 34°34' E 135°23'0 0.0
2018-Apr-20 11:00N 34°34' E 135°23'2 4.4
2018-Apr-20 10:30N 34°34' E 135°21'713.1
2018-Apr-20 10:00N 34°34' E 135°13'714.3
2018-Apr-20 09:31N 34°35' E 135°04'714.4
2018-Apr-20 09:00N 34°37' E 134°55'714.9
2018-Apr-20 08:31N 34°40' E 134°47'713.6
2018-Apr-20 08:00N 34°43' E 134°40'5 9.6
2018-Apr-20 07:30N 34°46' E 134°35'0 0.0
2018-Apr-20 04:27N 34°46' E 134°35'1 1.6
2018-Apr-20 04:00N 34°45' E 134°36'0 0.0
2018-Apr-19 14:18N 34°45' E 134°36'2 5.7
2018-Apr-19 14:00N 34°44' E 134°37'713.2
2018-Apr-19 13:30N 34°41' E 134°44'714.1
2018-Apr-19 13:01N 34°38' E 134°52'815.9
2018-Apr-19 12:30N 34°37' E 135°02'713.6
2018-Apr-19 12:00N 34°35' E 135°09'612.7
2018-Apr-19 11:30N 34°34' E 135°17'612.5
2018-Apr-19 11:00N 34°33' E 135°24'2 2.8
2018-Apr-19 10:28N 34°33' E 135°26'0 0.0
2018-Apr-19 09:55N 34°33' E 135°26'0 0.0
2018-Apr-19 09:28N 34°33' E 135°26'0 0.0
2018-Apr-19 08:55N 34°33' E 135°26'0 0.0
2018-Apr-19 08:28N 34°33' E 135°26'0 0.0
2018-Apr-19 07:58N 34°33' E 135°26'0 0.0
2018-Apr-19 07:25N 34°33' E 135°26'0 0.0
2018-Apr-19 06:58N 34°33' E 135°26'0 0.0
2018-Apr-19 06:28N 34°33' E 135°26'0 0.1
2018-Apr-19 06:00N 34°33' E 135°26'510.4
2018-Apr-19 05:30N 34°34' E 135°20'713.2
2018-Apr-19 05:01N 34°34' E 135°12'713.8
2018-Apr-19 04:30N 34°35' E 135°04'713.2
2018-Apr-19 04:01N 34°37' E 134°56'713.6
2018-Apr-19 03:30N 34°40' E 134°48'712.9
2018-Apr-19 03:00N 34°43' E 134°41'611.2
2018-Apr-19 02:28N 34°46' E 134°35'1 0.1
2018-Apr-18 21:14N 34°45' E 134°36'0 0.0
2018-Apr-18 20:08N 34°45' E 134°36'0 0.0
2018-Apr-18 19:50N 34°45' E 134°36'0 0.0
2018-Apr-18 18:32N 34°45' E 134°36'0 0.1
2018-Apr-18 18:28N 34°45' E 134°36'4 8.4
2018-Apr-18 18:00N 34°43' E 134°32'813.0
2018-Apr-18 17:23N 34°39' E 134°23'1313.3
2018-Apr-18 16:25N 34°33' E 134°10'25 0.9
2018-Apr-17 14:10N 34°45' E 134°36'0 0.0
2018-Apr-17 13:46N 34°45' E 134°36'0 0.0
2018-Apr-17 07:05N 34°45' E 134°35'1 9.8
2018-Apr-17 07:00N 34°45' E 134°35'713.2
2018-Apr-17 06:30N 34°41' E 134°28'1813.7
2018-Apr-17 05:12N 34°32' E 134°09'1 0.0
2018-Apr-16 05:11N 34°32' E 134°08'2211.9
2018-Apr-16 03:20N 34°43' E 134°31'410.9
2018-Apr-16 02:58N 34°45' E 134°35'1 0.2
2018-Apr-15 23:29N 34°46' E 134°35'1 0.1
2018-Apr-15 13:28N 34°45' E 134°36'4 7.6
2018-Apr-15 12:55N 34°43' E 134°31'612.2
2018-Apr-15 12:28N 34°40' E 134°25'1511.8
2018-Apr-15 11:11N 34°33' E 134°10'25 0.8
2018-Apr-14 03:43N 34°46' E 134°35'1 2.0
2018-Apr-14 03:17N 34°45' E 134°35'0 0.2
2018-Apr-14 02:58N 34°45' E 134°35'0 0.0
2018-Apr-14 02:28N 34°45' E 134°35'0 0.0
2018-Apr-13 13:37N 34°45' E 134°35'0 1.3
2018-Apr-13 13:28N 34°45' E 134°35'612.1
2018-Apr-13 12:59N 34°42' E 134°29'1912.2
2018-Apr-13 11:26N 34°32' E 134°09'  
Track history (hours):
 
Tides and Currents Weather Stations Pressure Air Temp Water Temp Dewpoint Dewpoint Depression Visibility Wind Speed Wind Dir Waves Ship Positions

No.3tokuyomaru

Last reported at 2018-Apr-22 05:05 UTC. Time now 2018-Apr-22 12:26 UTC.
Position N 34°32' E 134°09'.

Length 67 m; draft 4.5 m.

Type: Tanker. MMSI: 431002151.

Date/timePositionNaut miles runAvg speedWind from/ knotsBaromVisibWave heightAir tempDewpointWater temp
2018-Apr-22 05:05N 34°32' E 134°09'213.5
2018-Apr-22 04:56N 34°33' E 134°11'613.4
2018-Apr-22 04:30N 34°36' E 134°17'713.4
2018-Apr-22 04:00N 34°40' E 134°24'713.3
2018-Apr-22 03:30N 34°43' E 134°31'4 0.4
2018-Apr-21 17:19N 34°45' E 134°35'0 0.0
2018-Apr-21 16:49N 34°45' E 134°35'0 0.0
2018-Apr-21 16:25N 34°45' E 134°35'0 0.0
2018-Apr-21 15:55N 34°45' E 134°35'0 0.0
2018-Apr-21 14:49N 34°45' E 134°35'1 0.6
2018-Apr-21 13:02N 34°45' E 134°37'112.4
2018-Apr-21 12:57N 34°44' E 134°38'612.7
2018-Apr-21 12:30N 34°42' E 134°44'612.8
2018-Apr-21 12:00N 34°38' E 134°51'612.6
2018-Apr-21 11:30N 34°38' E 134°58'510.8
2018-Apr-21 11:00N 34°36' E 135°05'611.3
2018-Apr-21 10:30N 34°35' E 135°11'612.0
2018-Apr-21 10:00N 34°34' E 135°18'611.8
2018-Apr-21 09:30N 34°33' E 135°26'1 1.0
2018-Apr-21 08:59N 34°33' E 135°26'0 0.0
2018-Apr-21 08:11N 34°33' E 135°26'0 0.0
2018-Apr-21 07:59N 34°33' E 135°26'0 0.0
2018-Apr-21 07:29N 34°33' E 135°26'0 0.0
2018-Apr-21 06:59N 34°33' E 135°26'0 0.0
2018-Apr-21 06:29N 34°33' E 135°26'0 0.0
2018-Apr-21 05:59N 34°33' E 135°26'0 0.0
2018-Apr-21 05:29N 34°33' E 135°26'0 0.0
2018-Apr-21 04:59N 34°33' E 135°26'0 0.0
2018-Apr-21 04:29N 34°33' E 135°26'0 0.0
2018-Apr-21 03:59N 34°33' E 135°26'2 4.2
2018-Apr-21 03:31N 34°33' E 135°24'1 1.4
2018-Apr-21 02:59N 34°34' E 135°23'0 0.0
2018-Apr-21 02:29N 34°34' E 135°23'0 0.0
2018-Apr-21 01:59N 34°34' E 135°23'0 0.0
2018-Apr-21 01:29N 34°34' E 135°23'0 0.0
2018-Apr-21 00:59N 34°34' E 135°23'0 0.0
2018-Apr-21 00:29N 34°34' E 135°23'0 0.0
2018-Apr-20 23:59N 34°34' E 135°23'0 0.0
2018-Apr-20 23:29N 34°34' E 135°23'0 0.0
2018-Apr-20 22:59N 34°34' E 135°23'0 0.1
2018-Apr-20 22:29N 34°34' E 135°23'0 0.0
2018-Apr-20 21:59N 34°34' E 135°23'0 0.0
2018-Apr-20 21:29N 34°34' E 135°23'0 0.1
2018-Apr-20 20:59N 34°34' E 135°23'0 0.0
2018-Apr-20 20:23N 34°34' E 135°23'0 0.0
2018-Apr-20 19:59N 34°34' E 135°23'0 0.1
2018-Apr-20 19:29N 34°34' E 135°23'0 0.1
2018-Apr-20 18:59N 34°34' E 135°23'0 0.0
2018-Apr-20 18:29N 34°34' E 135°23'0 0.0
2018-Apr-20 17:59N 34°34' E 135°23'0 0.0
2018-Apr-20 17:29N 34°34' E 135°23'0 0.0
2018-Apr-20 16:59N 34°34' E 135°23'0 0.0
2018-Apr-20 16:29N 34°34' E 135°23'0 0.0
2018-Apr-20 15:59N 34°34' E 135°23'0 0.0
2018-Apr-20 15:26N 34°34' E 135°23'0 0.0
2018-Apr-20 14:59N 34°34' E 135°23'0 0.0
2018-Apr-20 14:29N 34°34' E 135°23'0 0.1
2018-Apr-20 13:53N 34°34' E 135°23'0 0.0
2018-Apr-20 13:29N 34°34' E 135°23'0 0.0
2018-Apr-20 12:59N 34°34' E 135°23'0 0.0
2018-Apr-20 12:29N 34°34' E 135°23'0 0.0
2018-Apr-20 11:59N 34°34' E 135°23'0 0.0
2018-Apr-20 11:29N 34°34' E 135°23'0 0.0
2018-Apr-20 11:00N 34°34' E 135°23'2 4.4
2018-Apr-20 10:30N 34°34' E 135°21'713.1
2018-Apr-20 10:00N 34°34' E 135°13'714.3
2018-Apr-20 09:31N 34°35' E 135°04'714.4
2018-Apr-20 09:00N 34°37' E 134°55'714.9
2018-Apr-20 08:31N 34°40' E 134°47'713.6
2018-Apr-20 08:00N 34°43' E 134°40'5 9.6
2018-Apr-20 07:30N 34°46' E 134°35'0 0.0
2018-Apr-20 04:27N 34°46' E 134°35'1 1.6
2018-Apr-20 04:00N 34°45' E 134°36'0 0.0
2018-Apr-19 14:18N 34°45' E 134°36'2 5.7
2018-Apr-19 14:00N 34°44' E 134°37'713.2
2018-Apr-19 13:30N 34°41' E 134°44'714.1
2018-Apr-19 13:01N 34°38' E 134°52'815.9
2018-Apr-19 12:30N 34°37' E 135°02'713.6
2018-Apr-19 12:00N 34°35' E 135°09'612.7
2018-Apr-19 11:30N 34°34' E 135°17'612.5
2018-Apr-19 11:00N 34°33' E 135°24'2 2.8
2018-Apr-19 10:28N 34°33' E 135°26'0 0.0
2018-Apr-19 09:55N 34°33' E 135°26'0 0.0
2018-Apr-19 09:28N 34°33' E 135°26'0 0.0
2018-Apr-19 08:55N 34°33' E 135°26'0 0.0
2018-Apr-19 08:28N 34°33' E 135°26'0 0.0
2018-Apr-19 07:58N 34°33' E 135°26'0 0.0
2018-Apr-19 07:25N 34°33' E 135°26'0 0.0
2018-Apr-19 06:58N 34°33' E 135°26'0 0.0
2018-Apr-19 06:28N 34°33' E 135°26'0 0.1
2018-Apr-19 06:00N 34°33' E 135°26'510.4
2018-Apr-19 05:30N 34°34' E 135°20'713.2
2018-Apr-19 05:01N 34°34' E 135°12'713.8
2018-Apr-19 04:30N 34°35' E 135°04'713.2
2018-Apr-19 04:01N 34°37' E 134°56'713.6
2018-Apr-19 03:30N 34°40' E 134°48'712.9
2018-Apr-19 03:00N 34°43' E 134°41'611.2
2018-Apr-19 02:28N 34°46' E 134°35'1 0.1
2018-Apr-18 21:14N 34°45' E 134°36'0 0.0
2018-Apr-18 20:08N 34°45' E 134°36'0 0.0
2018-Apr-18 19:50N 34°45' E 134°36'0 0.0
2018-Apr-18 18:32N 34°45' E 134°36'0 0.1
2018-Apr-18 18:28N 34°45' E 134°36'4 8.4
2018-Apr-18 18:00N 34°43' E 134°32'813.0
2018-Apr-18 17:23N 34°39' E 134°23'1313.3
2018-Apr-18 16:25N 34°33' E 134°10'25 0.9
2018-Apr-17 14:10N 34°45' E 134°36'0 0.0
2018-Apr-17 13:46N 34°45' E 134°36'0 0.0
2018-Apr-17 07:05N 34°45' E 134°35'1 9.8
2018-Apr-17 07:00N 34°45' E 134°35'713.2
2018-Apr-17 06:30N 34°41' E 134°28'1813.7
2018-Apr-17 05:12N 34°32' E 134°09'1 0.0
2018-Apr-16 05:11N 34°32' E 134°08'2211.9
2018-Apr-16 03:20N 34°43' E 134°31'410.9
2018-Apr-16 02:58N 34°45' E 134°35'1 0.2
2018-Apr-15 23:29N 34°46' E 134°35'1 0.1
2018-Apr-15 13:28N 34°45' E 134°36'4 7.6
2018-Apr-15 12:55N 34°43' E 134°31'612.2
2018-Apr-15 12:28N 34°40' E 134°25'1511.8
2018-Apr-15 11:11N 34°33' E 134°10'25 0.8
2018-Apr-14 03:43N 34°46' E 134°35'1 2.0
2018-Apr-14 03:17N 34°45' E 134°35'0 0.2
2018-Apr-14 02:58N 34°45' E 134°35'0 0.0
2018-Apr-14 02:28N 34°45' E 134°35'0 0.0
2018-Apr-13 13:37N 34°45' E 134°35'0 1.3
2018-Apr-13 13:28N 34°45' E 134°35'612.1
2018-Apr-13 12:59N 34°42' E 134°29'1912.2
2018-Apr-13 11:26N 34°32' E 134°09'  

Dump ship's entire track history